KHWO/HWO METAR and TAF weather

Enter ICAO airport designator
Station Type Date Time Source
KHWO METAR 2019/10/22 15:53 UTC NOAA

KHWO 221553Z 16005KT 10SM CLR 29/24 A3003 RMK AO2 SLP169 T02890244


Station Type Date Time Source
KHWO Decoded METAR 2019/10/22 15:53 UTC NOAA

HOLLYWOOD NORTH PERRY AIRPORT , FL, United States (KHWO) 26-00N 080-14W 2M
Oct 22, 2019 - 11:53 AM EDT / 2019.10.22 1553 UTC
Wind: from the SSE (160 degrees) at 6 MPH (5 KT):0
Visibility: 10 mile(s):0
Sky conditions: clear
Temperature: 84.0 F (28.9 C)
Dew Point: 75.9 F (24.4 C)
Relative Humidity: 76%
Pressure (altimeter): 30.03 in. Hg (1016 hPa)
ob: KHWO 221553Z 16005KT 10SM CLR 29/24 A3003 RMK AO2 SLP169 T02890244
cycle: 16

Station Type Date Time Source
KHWO TAF UTC NOAA

Error!

Example: see airport list